ETD7L1 OMAA-EHAM
Flight info
| Callsign | ETD7L1 |
|---|---|
| Flight time | 7h 1m |
| Altitude | 36000 |
| Route | KANIP DCT ORNEL DCT NOBTO DCT ESROM DCT GOLGU DCT RIBOT DCT BOPEK DCT MIGMA DCT BOSOB DCT TAVNU DCT OVANO/N0489F380 L768 FIRAS R655 LEBOR UR655 BALMA L620 VESAR UB545 OKLAM UL619 OSVEL UQ23 OSDAN UQ26 DIGBO DCT TUDBU DCT GRN DCT NAVOD DCT MOPUG DCT BEGLA/N0478F400 DCT FMD DCT DITIS DCT VARIK DCT KATCE DCT NORKU |
| Aircraft | A35K/H-SDE2E3GHIJ1J3J4J5LM1ORWXY/LB1D1 |
Departure
| Time | 2026-05-04 10:12 |
|---|---|
| Airport | Zayed International Airport (OMAA) |
Arrival
| Time | 2026-05-04 17:14 |
|---|---|
| Airport | Amsterdam Airport Schiphol (EHAM) |
| Time | Latitude | Longitude | Altitude | Speed | Heading |
|---|---|---|---|---|---|
| 2026-05-04 09:01 | 24.45339 | 54.64301 | 79 ft | 0 kts | 242° |
| 2026-05-04 09:55 | 24.45341 | 54.64305 | 71 ft | 2 kts | 240° |
| 2026-05-04 09:55 | 24.45349 | 54.64321 | 85 ft | 2 kts | 242° |
| 2026-05-04 09:55 | 24.45356 | 54.64337 | 84 ft | 2 kts | 243° |
| 2026-05-04 09:56 | 24.45365 | 54.64352 | 83 ft | 2 kts | 229° |
| 2026-05-04 09:56 | 24.45377 | 54.64365 | 84 ft | 2 kts | 211° |
| 2026-05-04 09:56 | 24.45393 | 54.64371 | 84 ft | 2 kts | 182° |
| 2026-05-04 09:56 | 24.45409 | 54.64370 | 84 ft | 2 kts | 172° |
| 2026-05-04 09:57 | 24.45426 | 54.64367 | 85 ft | 2 kts | 168° |
| 2026-05-04 09:57 | 24.45436 | 54.64365 | 84 ft | 1 kts | 167° |
| 2026-05-04 09:57 | 24.45437 | 54.64364 | 84 ft | 0 kts | 167° |
| 2026-05-04 10:00 | 24.45434 | 54.64365 | 84 ft | 1 kts | 167° |
| 2026-05-04 10:02 | 24.45294 | 54.64561 | 84 ft | 8 kts | 101° |
| 2026-05-04 10:04 | 24.45093 | 54.65128 | 87 ft | 14 kts | 128° |
| 2026-05-04 10:04 | 24.45030 | 54.65216 | 87 ft | 15 kts | 128° |
| 2026-05-04 10:04 | 24.44965 | 54.65309 | 86 ft | 16 kts | 128° |
| 2026-05-04 10:04 | 24.44899 | 54.65401 | 86 ft | 13 kts | 128° |
| 2026-05-04 10:05 | 24.44855 | 54.65465 | 86 ft | 8 kts | 118° |
| 2026-05-04 10:05 | 24.44873 | 54.65514 | 86 ft | 7 kts | 43° |
| 2026-05-04 10:05 | 24.44915 | 54.65554 | 87 ft | 8 kts | 46° |
| 2026-05-04 10:05 | 24.44910 | 54.65606 | 87 ft | 7 kts | 120° |
| 2026-05-04 10:06 | 24.44878 | 54.65655 | 87 ft | 9 kts | 127° |
| 2026-05-04 10:06 | 24.44839 | 54.65711 | 86 ft | 10 kts | 128° |
| 2026-05-04 10:06 | 24.44795 | 54.65773 | 88 ft | 11 kts | 128° |
| 2026-05-04 10:08 | 24.44439 | 54.66274 | 90 ft | 17 kts | 128° |
| 2026-05-04 10:08 | 24.44366 | 54.66377 | 90 ft | 17 kts | 128° |
| 2026-05-04 10:08 | 24.44290 | 54.66484 | 91 ft | 18 kts | 128° |
| 2026-05-04 10:08 | 24.44209 | 54.66597 | 89 ft | 19 kts | 128° |
| 2026-05-04 10:09 | 24.44125 | 54.66715 | 91 ft | 20 kts | 128° |
| 2026-05-04 10:09 | 24.44070 | 54.66793 | 90 ft | 19 kts | 128° |
| 2026-05-04 10:09 | 24.44005 | 54.66901 | 90 ft | 11 kts | 94° |
| 2026-05-04 10:09 | 24.44046 | 54.66963 | 91 ft | 11 kts | 39° |
| 2026-05-04 10:10 | 24.44117 | 54.67002 | 88 ft | 12 kts | 4° |
| 2026-05-04 10:10 | 24.44203 | 54.66993 | 88 ft | 12 kts | 353° |
| 2026-05-04 10:10 | 24.44239 | 54.66987 | 87 ft | 6 kts | 353° |
| 2026-05-04 10:10 | 24.44271 | 54.66973 | 91 ft | 5 kts | 323° |
| 2026-05-04 10:11 | 24.44290 | 54.66951 | 88 ft | 3 kts | 310° |
| 2026-05-04 10:11 | 24.44296 | 54.66943 | 90 ft | 0 kts | 308° |
| 2026-05-04 10:11 | 24.44306 | 54.66928 | 90 ft | 10 kts | 308° |
| 2026-05-04 10:12 | 24.44480 | 54.66684 | 90 ft | 73 kts | 308° |
| 2026-05-04 10:12 | 24.44909 | 54.66079 | 86 ft | 127 kts | 308° |
| 2026-05-04 10:12 | 24.45553 | 54.65174 | 160 ft | 166 kts | 308° |
| 2026-05-04 10:12 | 24.46243 | 54.64196 | 887 ft | 162 kts | 309° |
| 2026-05-04 10:13 | 24.47118 | 54.63368 | 1355 ft | 173 kts | 330° |
| 2026-05-04 10:13 | 24.48326 | 54.62953 | 1731 ft | 192 kts | 342° |
| 2026-05-04 10:13 | 24.49710 | 54.62569 | 1935 ft | 217 kts | 344° |
| 2026-05-04 10:13 | 24.51156 | 54.62041 | 2332 ft | 226 kts | 337° |
| 2026-05-04 10:14 | 24.52631 | 54.61380 | 2928 ft | 231 kts | 336° |
| 2026-05-04 10:14 | 24.54111 | 54.60688 | 3582 ft | 232 kts | 336° |
| 2026-05-04 10:16 | 24.60880 | 54.67488 | 7204 ft | 300 kts | 93° |
| 2026-05-04 10:16 | 24.60678 | 54.69775 | 7827 ft | 302 kts | 92° |
| 2026-05-04 10:16 | 24.60519 | 54.72088 | 8418 ft | 305 kts | 91° |
| 2026-05-04 10:16 | 24.60377 | 54.74428 | 9027 ft | 309 kts | 92° |
| 2026-05-04 10:17 | 24.59878 | 54.76746 | 9576 ft | 317 kts | 114° |
| 2026-05-04 10:17 | 24.58558 | 54.78693 | 10164 ft | 321 kts | 135° |
| 2026-05-04 10:19 | 24.45543 | 54.92306 | 12294 ft | 404 kts | 136° |
| 2026-05-04 10:19 | 24.43504 | 54.94452 | 12800 ft | 407 kts | 136° |
| 2026-05-04 10:19 | 24.41454 | 54.96610 | 13339 ft | 409 kts | 136° |
| 2026-05-04 10:19 | 24.39391 | 54.98781 | 13845 ft | 412 kts | 136° |
| 2026-05-04 10:20 | 24.37232 | 55.00858 | 14307 ft | 414 kts | 144° |
| 2026-05-04 10:20 | 24.34732 | 55.02418 | 14736 ft | 415 kts | 160° |
| 2026-05-04 10:20 | 24.31930 | 55.03116 | 15188 ft | 413 kts | 179° |
| 2026-05-04 10:20 | 24.29089 | 55.02779 | 15622 ft | 411 kts | 199° |
| 2026-05-04 10:21 | 24.26559 | 55.01469 | 16041 ft | 408 kts | 218° |
| 2026-05-04 10:21 | 24.24548 | 54.99310 | 16478 ft | 405 kts | 236° |
| 2026-05-04 10:21 | 24.23087 | 54.96676 | 16916 ft | 405 kts | 246° |
| 2026-05-04 10:21 | 24.21920 | 54.93858 | 17335 ft | 407 kts | 250° |
| 2026-05-04 10:22 | 24.19826 | 54.88049 | 18182 ft | 413 kts | 251° |
| 2026-05-04 10:22 | 24.18740 | 54.85123 | 18608 ft | 415 kts | 249° |
| 2026-05-04 10:22 | 24.17606 | 54.82210 | 19021 ft | 417 kts | 249° |
| 2026-05-04 10:23 | 24.16431 | 54.79297 | 19440 ft | 419 kts | 248° |
| 2026-05-04 10:23 | 24.15244 | 54.76423 | 19879 ft | 420 kts | 247° |
| 2026-05-04 10:25 | 24.06599 | 54.55772 | 22970 ft | 433 kts | 246° |
| 2026-05-04 10:25 | 24.05344 | 54.52771 | 23394 ft | 435 kts | 246° |
| 2026-05-04 10:25 | 24.04077 | 54.49743 | 23748 ft | 438 kts | 246° |
| 2026-05-04 10:25 | 24.02806 | 54.46708 | 24092 ft | 440 kts | 246° |
| 2026-05-04 10:26 | 24.01526 | 54.43655 | 24468 ft | 442 kts | 247° |
| 2026-05-04 10:26 | 24.00243 | 54.40597 | 24879 ft | 443 kts | 247° |
| 2026-05-04 10:26 | 23.98955 | 54.37529 | 25306 ft | 445 kts | 247° |
| 2026-05-04 10:26 | 23.97661 | 54.34450 | 25713 ft | 447 kts | 247° |
| 2026-05-04 10:27 | 23.96361 | 54.31356 | 26142 ft | 448 kts | 247° |
| 2026-05-04 10:27 | 23.95057 | 54.28256 | 26578 ft | 450 kts | 247° |
| 2026-05-04 10:27 | 23.93747 | 54.25143 | 26998 ft | 452 kts | 247° |
| 2026-05-04 10:27 | 23.92428 | 54.22013 | 27416 ft | 454 kts | 248° |
| 2026-05-04 10:28 | 23.91104 | 54.18872 | 27841 ft | 456 kts | 248° |
| 2026-05-04 10:28 | 23.89776 | 54.15722 | 28264 ft | 458 kts | 248° |
| 2026-05-04 10:28 | 23.88456 | 54.12593 | 28675 ft | 460 kts | 248° |
| 2026-05-04 10:28 | 23.87142 | 54.09483 | 29083 ft | 461 kts | 248° |
| 2026-05-04 10:29 | 23.85760 | 54.06213 | 29492 ft | 463 kts | 248° |
| 2026-05-04 10:29 | 23.84407 | 54.03014 | 29841 ft | 465 kts | 248° |
| 2026-05-04 10:29 | 23.83044 | 53.99792 | 30116 ft | 468 kts | 248° |
| 2026-05-04 10:29 | 23.81698 | 53.96614 | 30378 ft | 470 kts | 248° |
| 2026-05-04 10:30 | 23.80300 | 53.93315 | 30669 ft | 472 kts | 248° |
| 2026-05-04 10:30 | 23.78918 | 53.90056 | 30943 ft | 474 kts | 248° |
| 2026-05-04 10:30 | 23.77531 | 53.86789 | 31265 ft | 474 kts | 248° |
| 2026-05-04 10:30 | 23.76146 | 53.83532 | 31703 ft | 472 kts | 248° |
| 2026-05-04 10:31 | 23.74782 | 53.80326 | 32081 ft | 471 kts | 248° |
| 2026-05-04 10:31 | 23.73406 | 53.77092 | 32469 ft | 469 kts | 248° |
| 2026-05-04 10:32 | 23.65192 | 53.57827 | 34494 ft | 464 kts | 248° |
| 2026-05-04 10:33 | 23.63844 | 53.54672 | 34763 ft | 464 kts | 247° |
| 2026-05-04 10:33 | 23.62464 | 53.51445 | 35050 ft | 463 kts | 248° |
| 2026-05-04 10:33 | 23.61121 | 53.48308 | 35321 ft | 462 kts | 248° |
| 2026-05-04 10:33 | 23.59760 | 53.45132 | 35586 ft | 462 kts | 248° |
| 2026-05-04 10:34 | 23.58403 | 53.41963 | 35765 ft | 463 kts | 248° |
| 2026-05-04 10:34 | 23.57032 | 53.38764 | 35788 ft | 467 kts | 248° |
| 2026-05-04 10:34 | 23.54274 | 53.32337 | 35794 ft | 467 kts | 247° |
| 2026-05-04 10:35 | 23.51513 | 53.25916 | 35789 ft | 467 kts | 247° |
| 2026-05-04 10:35 | 23.48803 | 53.19621 | 35790 ft | 467 kts | 247° |
| 2026-05-04 10:36 | 23.45987 | 53.13089 | 35802 ft | 468 kts | 247° |
| 2026-05-04 10:36 | 23.43239 | 53.06722 | 35803 ft | 467 kts | 247° |
| 2026-05-04 10:37 | 23.40471 | 53.00320 | 35798 ft | 468 kts | 247° |
| 2026-05-04 10:37 | 23.37694 | 52.93905 | 35781 ft | 468 kts | 247° |
| 2026-05-04 10:39 | 23.28003 | 52.71582 | 35782 ft | 468 kts | 247° |
| 2026-05-04 10:40 | 23.25301 | 52.65380 | 35790 ft | 468 kts | 247° |
| 2026-05-04 10:40 | 23.22500 | 52.58954 | 35771 ft | 468 kts | 247° |
| 2026-05-04 10:41 | 23.19713 | 52.52571 | 35785 ft | 468 kts | 247° |
| 2026-05-04 10:41 | 23.16916 | 52.46174 | 35786 ft | 469 kts | 247° |
| 2026-05-04 10:42 | 23.14265 | 52.39739 | 35787 ft | 467 kts | 252° |
| 2026-05-04 10:42 | 23.12102 | 52.33122 | 35777 ft | 467 kts | 253° |
| 2026-05-04 10:43 | 23.10010 | 52.26509 | 35781 ft | 467 kts | 253° |
| 2026-05-04 10:45 | 23.01509 | 51.99795 | 35775 ft | 467 kts | 252° |
| 2026-05-04 10:45 | 22.99370 | 51.93114 | 35776 ft | 467 kts | 252° |
| 2026-05-04 10:46 | 22.97232 | 51.86446 | 35776 ft | 467 kts | 252° |
| 2026-05-04 10:46 | 22.95093 | 51.79787 | 35775 ft | 467 kts | 252° |
| 2026-05-04 10:47 | 22.92950 | 51.73124 | 35777 ft | 468 kts | 252° |
| 2026-05-04 10:47 | 22.90811 | 51.66488 | 35774 ft | 468 kts | 252° |
| 2026-05-04 10:49 | 22.84040 | 51.39467 | 35775 ft | 465 kts | 268° |
| 2026-05-04 10:50 | 22.83787 | 51.32437 | 35772 ft | 465 kts | 268° |
| 2026-05-04 10:52 | 22.82849 | 51.04396 | 35773 ft | 465 kts | 268° |
| 2026-05-04 10:52 | 22.82595 | 50.97443 | 35777 ft | 465 kts | 268° |
| 2026-05-04 10:54 | 22.81546 | 50.69407 | 35777 ft | 465 kts | 268° |
| 2026-05-04 10:56 | 22.80459 | 50.41637 | 35775 ft | 465 kts | 268° |
| 2026-05-04 10:57 | 22.80179 | 50.34679 | 35778 ft | 466 kts | 268° |
| 2026-05-04 10:57 | 22.79893 | 50.27667 | 35774 ft | 466 kts | 268° |
| 2026-05-04 10:58 | 22.79652 | 50.21804 | 35779 ft | 466 kts | 268° |
| 2026-05-04 10:58 | 22.79313 | 50.13646 | 35776 ft | 466 kts | 267° |
| 2026-05-04 10:59 | 22.79068 | 50.07803 | 35775 ft | 466 kts | 267° |
| 2026-05-04 10:59 | 22.78770 | 50.00768 | 35776 ft | 466 kts | 267° |
| 2026-05-04 11:00 | 22.78470 | 49.93768 | 35775 ft | 466 kts | 267° |
| 2026-05-04 11:02 | 22.77244 | 49.65835 | 35777 ft | 466 kts | 267° |
| 2026-05-04 11:05 | 22.74799 | 49.13157 | 35779 ft | 466 kts | 267° |
| 2026-05-04 11:06 | 22.74460 | 49.06140 | 35787 ft | 466 kts | 266° |
| 2026-05-04 11:06 | 22.74118 | 48.99124 | 35790 ft | 466 kts | 266° |
| 2026-05-04 11:10 | 22.71647 | 48.50185 | 35792 ft | 467 kts | 266° |
| 2026-05-04 11:12 | 22.70162 | 48.22111 | 35783 ft | 467 kts | 266° |
| 2026-05-04 11:12 | 22.69917 | 48.15082 | 35789 ft | 467 kts | 272° |
| 2026-05-04 11:13 | 22.71105 | 48.08166 | 35789 ft | 470 kts | 288° |
| 2026-05-04 11:13 | 22.74218 | 48.01970 | 35790 ft | 476 kts | 306° |
| 2026-05-04 11:14 | 22.79122 | 47.97096 | 35786 ft | 485 kts | 324° |
| 2026-05-04 11:16 | 23.03376 | 47.83696 | 35798 ft | 489 kts | 327° |
| 2026-05-04 11:16 | 23.09316 | 47.80177 | 35806 ft | 489 kts | 327° |
| 2026-05-04 11:17 | 23.15284 | 47.76640 | 35812 ft | 488 kts | 327° |
| 2026-05-04 11:19 | 23.38911 | 47.62619 | 35827 ft | 489 kts | 327° |
| 2026-05-04 11:19 | 23.44861 | 47.59079 | 35835 ft | 489 kts | 327° |
| 2026-05-04 11:20 | 23.50791 | 47.55547 | 35841 ft | 489 kts | 327° |
| 2026-05-04 11:20 | 23.56798 | 47.51965 | 35848 ft | 489 kts | 327° |
| 2026-05-04 11:22 | 23.79085 | 47.38646 | 35869 ft | 489 kts | 326° |
| 2026-05-04 11:23 | 23.85052 | 47.35071 | 35880 ft | 489 kts | 326° |
| 2026-05-04 11:25 | 24.05917 | 47.22540 | 35881 ft | 489 kts | 326° |
| 2026-05-04 11:25 | 24.11879 | 47.18951 | 35878 ft | 489 kts | 326° |
| 2026-05-04 11:27 | 24.38638 | 47.02794 | 35888 ft | 488 kts | 326° |
| 2026-05-04 11:28 | 24.44597 | 46.99186 | 35903 ft | 488 kts | 326° |
| 2026-05-04 11:28 | 24.50552 | 46.95575 | 35912 ft | 489 kts | 325° |
| 2026-05-04 11:29 | 24.56514 | 46.91956 | 35918 ft | 490 kts | 325° |
| 2026-05-04 11:29 | 24.62456 | 46.88346 | 35923 ft | 490 kts | 325° |
| 2026-05-04 11:33 | 25.04157 | 46.62898 | 35940 ft | 489 kts | 324° |
| 2026-05-04 11:33 | 25.09959 | 46.59107 | 35941 ft | 482 kts | 317° |
| 2026-05-04 11:34 | 25.15032 | 46.54363 | 35942 ft | 476 kts | 311° |
| 2026-05-04 11:34 | 25.19914 | 46.49419 | 35946 ft | 476 kts | 311° |
| 2026-05-04 11:35 | 25.24763 | 46.44446 | 35944 ft | 475 kts | 311° |
| 2026-05-04 11:35 | 25.29617 | 46.39483 | 35938 ft | 475 kts | 311° |
| 2026-05-04 11:36 | 25.34479 | 46.34525 | 35939 ft | 475 kts | 311° |
| 2026-05-04 11:36 | 25.39333 | 46.29575 | 35937 ft | 475 kts | 310° |
| 2026-05-04 11:37 | 25.44154 | 46.24651 | 35938 ft | 474 kts | 310° |
| 2026-05-04 11:37 | 25.49007 | 46.19689 | 35938 ft | 474 kts | 310° |
| 2026-05-04 11:38 | 25.53857 | 46.14723 | 35937 ft | 474 kts | 310° |
| 2026-05-04 11:38 | 25.58703 | 46.09757 | 35930 ft | 474 kts | 310° |
| 2026-05-04 11:39 | 25.63541 | 46.04792 | 35930 ft | 474 kts | 310° |
| 2026-05-04 11:41 | 25.80430 | 45.87416 | 35932 ft | 474 kts | 310° |
| 2026-05-04 11:41 | 25.85257 | 45.82437 | 35932 ft | 474 kts | 310° |
| 2026-05-04 11:42 | 25.90087 | 45.77449 | 35929 ft | 473 kts | 310° |
| 2026-05-04 11:42 | 25.94906 | 45.72467 | 35935 ft | 473 kts | 309° |
| 2026-05-04 11:43 | 25.99729 | 45.67474 | 35930 ft | 473 kts | 309° |
| 2026-05-04 11:43 | 26.04541 | 45.62487 | 35918 ft | 473 kts | 309° |
| 2026-05-04 11:44 | 26.09317 | 45.57531 | 35944 ft | 472 kts | 309° |
| 2026-05-04 11:44 | 26.14117 | 45.52546 | 35927 ft | 472 kts | 309° |
| 2026-05-04 11:45 | 26.18911 | 45.47559 | 35930 ft | 471 kts | 309° |
| 2026-05-04 11:45 | 26.23705 | 45.42567 | 35934 ft | 471 kts | 309° |
| 2026-05-04 11:46 | 26.27679 | 45.38425 | 35938 ft | 471 kts | 309° |
| 2026-05-04 11:46 | 26.33242 | 45.32620 | 35933 ft | 470 kts | 309° |
| 2026-05-04 11:47 | 26.37211 | 45.28472 | 35930 ft | 469 kts | 309° |
| 2026-05-04 11:47 | 26.41971 | 45.23493 | 35932 ft | 469 kts | 309° |
| 2026-05-04 11:48 | 26.46730 | 45.18509 | 35933 ft | 469 kts | 308° |
| 2026-05-04 11:48 | 26.51479 | 45.13529 | 35927 ft | 468 kts | 308° |
| 2026-05-04 11:49 | 26.56220 | 45.08553 | 35927 ft | 468 kts | 308° |
| 2026-05-04 11:49 | 26.60969 | 45.03562 | 35928 ft | 467 kts | 308° |
| 2026-05-04 11:50 | 26.65701 | 44.98583 | 35928 ft | 467 kts | 308° |
| 2026-05-04 11:50 | 26.70415 | 44.93617 | 35927 ft | 467 kts | 308° |
| 2026-05-04 11:51 | 26.75152 | 44.88620 | 35920 ft | 467 kts | 308° |
| 2026-05-04 11:51 | 26.79874 | 44.83633 | 35913 ft | 466 kts | 308° |
| 2026-05-04 11:52 | 26.84586 | 44.78651 | 35915 ft | 466 kts | 308° |
| 2026-05-04 11:52 | 26.89300 | 44.73660 | 35916 ft | 466 kts | 308° |
| 2026-05-04 11:53 | 26.93987 | 44.68693 | 35913 ft | 466 kts | 307° |
| 2026-05-04 11:53 | 26.98708 | 44.63683 | 35912 ft | 466 kts | 307° |
| 2026-05-04 11:55 | 27.17519 | 44.43661 | 35905 ft | 466 kts | 307° |
| 2026-05-04 11:56 | 27.22201 | 44.38664 | 35902 ft | 465 kts | 307° |
| 2026-05-04 11:56 | 27.26907 | 44.33633 | 35899 ft | 465 kts | 307° |
| 2026-05-04 11:57 | 27.31585 | 44.28627 | 35900 ft | 465 kts | 307° |
| 2026-05-04 11:57 | 27.36281 | 44.23594 | 35901 ft | 465 kts | 307° |
| 2026-05-04 11:58 | 27.40968 | 44.18565 | 35903 ft | 466 kts | 307° |
| 2026-05-04 11:58 | 27.45651 | 44.13535 | 35899 ft | 466 kts | 307° |
| 2026-05-04 11:59 | 27.50312 | 44.08523 | 35901 ft | 466 kts | 307° |
| 2026-05-04 11:59 | 27.55001 | 44.03473 | 35899 ft | 466 kts | 307° |
| 2026-05-04 12:00 | 27.59692 | 43.98415 | 35900 ft | 466 kts | 307° |
| 2026-05-04 12:00 | 27.64377 | 43.93357 | 35896 ft | 467 kts | 306° |
| 2026-05-04 12:01 | 27.69011 | 43.88349 | 35904 ft | 467 kts | 306° |
| 2026-05-04 12:02 | 27.85389 | 43.70600 | 35904 ft | 465 kts | 306° |
| 2026-05-04 12:03 | 27.90044 | 43.65540 | 35902 ft | 464 kts | 306° |
| 2026-05-04 12:03 | 27.94643 | 43.60534 | 35901 ft | 464 kts | 306° |
| 2026-05-04 12:04 | 27.99340 | 43.55414 | 35896 ft | 463 kts | 306° |
| 2026-05-04 12:04 | 28.03990 | 43.50340 | 35903 ft | 463 kts | 306° |
| 2026-05-04 12:05 | 28.08554 | 43.45355 | 35920 ft | 462 kts | 306° |
| 2026-05-04 12:05 | 28.13254 | 43.40213 | 35917 ft | 462 kts | 306° |
| 2026-05-04 12:06 | 28.17754 | 43.35285 | 35919 ft | 461 kts | 306° |
| 2026-05-04 12:06 | 28.22376 | 43.30216 | 35923 ft | 461 kts | 306° |
| 2026-05-04 12:07 | 28.26979 | 43.25162 | 35917 ft | 460 kts | 306° |
| 2026-05-04 12:07 | 28.31572 | 43.20113 | 35924 ft | 460 kts | 306° |
| 2026-05-04 12:08 | 28.36083 | 43.15148 | 35923 ft | 459 kts | 306° |
| 2026-05-04 12:08 | 28.40729 | 43.10026 | 35924 ft | 459 kts | 306° |
| 2026-05-04 12:09 | 28.45330 | 43.04949 | 35929 ft | 459 kts | 306° |
| 2026-05-04 12:09 | 28.49874 | 42.99928 | 35932 ft | 458 kts | 306° |
| 2026-05-04 12:10 | 28.54459 | 42.94856 | 35927 ft | 458 kts | 306° |
| 2026-05-04 12:10 | 28.59026 | 42.89796 | 35928 ft | 457 kts | 306° |
| 2026-05-04 12:11 | 28.63551 | 42.84777 | 35918 ft | 457 kts | 306° |
| 2026-05-04 12:11 | 28.68124 | 42.79699 | 35931 ft | 457 kts | 306° |
| 2026-05-04 12:12 | 28.72657 | 42.74658 | 35927 ft | 456 kts | 306° |
| 2026-05-04 12:12 | 28.77202 | 42.69595 | 35928 ft | 457 kts | 306° |
| 2026-05-04 12:14 | 28.95353 | 42.49318 | 35934 ft | 458 kts | 306° |
| 2026-05-04 12:15 | 28.99908 | 42.44214 | 35935 ft | 458 kts | 306° |
| 2026-05-04 12:15 | 29.04458 | 42.39108 | 35943 ft | 459 kts | 306° |
| 2026-05-04 12:16 | 29.09009 | 42.33994 | 35938 ft | 459 kts | 306° |
| 2026-05-04 12:16 | 29.13485 | 42.28959 | 35945 ft | 459 kts | 306° |
| 2026-05-04 12:17 | 29.18033 | 42.23835 | 35945 ft | 459 kts | 306° |
| 2026-05-04 12:17 | 29.22549 | 42.18741 | 35947 ft | 459 kts | 306° |
| 2026-05-04 12:18 | 29.27065 | 42.13642 | 35952 ft | 458 kts | 306° |
| 2026-05-04 12:18 | 29.31602 | 42.08511 | 35952 ft | 458 kts | 306° |
| 2026-05-04 12:19 | 29.36130 | 42.03382 | 35951 ft | 458 kts | 306° |
| 2026-05-04 12:19 | 29.40688 | 41.98214 | 35955 ft | 458 kts | 306° |
| 2026-05-04 12:20 | 29.45199 | 41.93091 | 35961 ft | 459 kts | 306° |
| 2026-05-04 12:20 | 29.49735 | 41.87932 | 35961 ft | 459 kts | 306° |
| 2026-05-04 12:21 | 29.54275 | 41.82763 | 35963 ft | 459 kts | 306° |
| 2026-05-04 12:21 | 29.58786 | 41.77620 | 35975 ft | 459 kts | 306° |
| 2026-05-04 12:22 | 29.63316 | 41.72448 | 35966 ft | 460 kts | 306° |
| 2026-05-04 12:22 | 29.67866 | 41.67247 | 35969 ft | 460 kts | 306° |
| 2026-05-04 12:23 | 29.72396 | 41.62062 | 35973 ft | 460 kts | 306° |
| 2026-05-04 12:23 | 29.76930 | 41.56865 | 35972 ft | 460 kts | 306° |
| 2026-05-04 12:24 | 29.81490 | 41.51631 | 35969 ft | 460 kts | 306° |
| 2026-05-04 12:24 | 29.86000 | 41.46446 | 35974 ft | 460 kts | 306° |
| 2026-05-04 12:25 | 29.90539 | 41.41222 | 35974 ft | 460 kts | 306° |
| 2026-05-04 12:25 | 29.95038 | 41.36040 | 35977 ft | 460 kts | 306° |
| 2026-05-04 12:26 | 29.99563 | 41.30820 | 35976 ft | 460 kts | 305° |
| 2026-05-04 12:26 | 30.04082 | 41.25599 | 35976 ft | 460 kts | 305° |
| 2026-05-04 12:27 | 30.08616 | 41.20350 | 35980 ft | 460 kts | 305° |
| 2026-05-04 12:27 | 30.13057 | 41.15204 | 35979 ft | 460 kts | 305° |
| 2026-05-04 12:28 | 30.17597 | 41.09936 | 35997 ft | 460 kts | 305° |
| 2026-05-04 12:28 | 30.22133 | 41.04667 | 35984 ft | 459 kts | 305° |
| 2026-05-04 12:29 | 30.26588 | 40.99484 | 35983 ft | 458 kts | 305° |
| 2026-05-04 12:29 | 30.30938 | 40.94416 | 35988 ft | 458 kts | 304° |
| 2026-05-04 12:30 | 30.35446 | 40.89156 | 35988 ft | 457 kts | 304° |
| 2026-05-04 12:30 | 30.39911 | 40.83939 | 35986 ft | 456 kts | 304° |
| 2026-05-04 12:31 | 30.43629 | 40.79592 | 35983 ft | 455 kts | 304° |
| 2026-05-04 12:31 | 30.48782 | 40.73555 | 35984 ft | 453 kts | 304° |
| 2026-05-04 12:32 | 30.55423 | 40.65761 | 35980 ft | 452 kts | 304° |
| 2026-05-04 12:33 | 30.59132 | 40.61400 | 35977 ft | 451 kts | 304° |
| 2026-05-04 12:33 | 30.63523 | 40.56231 | 35977 ft | 451 kts | 304° |
| 2026-05-04 12:34 | 30.67902 | 40.51069 | 35975 ft | 450 kts | 304° |
| 2026-05-04 12:34 | 30.72325 | 40.45849 | 35975 ft | 450 kts | 304° |
| 2026-05-04 12:35 | 30.76714 | 40.40664 | 35981 ft | 450 kts | 304° |
| 2026-05-04 12:35 | 30.81084 | 40.35492 | 35974 ft | 450 kts | 304° |
| 2026-05-04 12:36 | 30.85452 | 40.30314 | 35971 ft | 449 kts | 304° |
| 2026-05-04 12:36 | 30.89830 | 40.25118 | 35974 ft | 449 kts | 304° |
| 2026-05-04 12:37 | 30.94193 | 40.19934 | 35972 ft | 449 kts | 304° |
| 2026-05-04 12:37 | 30.98551 | 40.14748 | 35973 ft | 448 kts | 304° |
| 2026-05-04 12:38 | 31.02902 | 40.09563 | 35972 ft | 448 kts | 304° |
| 2026-05-04 12:38 | 31.07251 | 40.04374 | 35973 ft | 447 kts | 303° |
| 2026-05-04 12:39 | 31.11615 | 39.99159 | 35975 ft | 446 kts | 303° |
| 2026-05-04 12:39 | 31.15947 | 39.93975 | 35977 ft | 446 kts | 303° |
| 2026-05-04 12:40 | 31.20271 | 39.88793 | 35968 ft | 445 kts | 303° |
| 2026-05-04 12:40 | 31.24586 | 39.83615 | 35977 ft | 445 kts | 303° |
| 2026-05-04 12:41 | 31.28881 | 39.78453 | 35976 ft | 444 kts | 303° |
| 2026-05-04 12:41 | 31.33189 | 39.73269 | 35980 ft | 444 kts | 303° |
| 2026-05-04 12:42 | 31.37493 | 39.68083 | 35983 ft | 444 kts | 303° |
| 2026-05-04 12:42 | 31.41767 | 39.62926 | 35983 ft | 444 kts | 303° |
| 2026-05-04 12:43 | 31.46069 | 39.57726 | 35988 ft | 445 kts | 303° |
| 2026-05-04 12:43 | 31.50376 | 39.52514 | 35987 ft | 445 kts | 303° |
| 2026-05-04 12:44 | 31.54699 | 39.47274 | 35991 ft | 446 kts | 303° |
| 2026-05-04 12:44 | 31.59009 | 39.42044 | 36100 ft | 446 kts | 303° |
| 2026-05-04 12:44 | 31.61160 | 39.39433 | 36451 ft | 444 kts | 303° |
| 2026-05-04 12:45 | 31.63299 | 39.36838 | 36816 ft | 442 kts | 303° |
| 2026-05-04 12:45 | 31.65410 | 39.34273 | 37115 ft | 441 kts | 303° |
| 2026-05-04 12:45 | 31.67564 | 39.31651 | 37381 ft | 441 kts | 303° |
| 2026-05-04 12:45 | 31.69612 | 39.29154 | 37640 ft | 441 kts | 303° |
| 2026-05-04 12:46 | 31.71791 | 39.26495 | 37900 ft | 440 kts | 302° |
| 2026-05-04 12:46 | 31.76061 | 39.21271 | 37987 ft | 446 kts | 303° |
| 2026-05-04 12:47 | 31.80745 | 39.16342 | 37990 ft | 464 kts | 314° |
| 2026-05-04 12:47 | 31.86460 | 39.12536 | 37994 ft | 476 kts | 321° |
| 2026-05-04 12:48 | 31.92411 | 39.09038 | 37994 ft | 478 kts | 322° |
| 2026-05-04 12:48 | 31.98380 | 39.05574 | 37987 ft | 477 kts | 322° |
| 2026-05-04 12:49 | 32.04317 | 39.02093 | 37987 ft | 476 kts | 322° |
| 2026-05-04 12:49 | 32.10241 | 38.98607 | 37984 ft | 475 kts | 321° |
| 2026-05-04 12:50 | 32.16131 | 38.95127 | 37980 ft | 475 kts | 321° |
| 2026-05-04 12:50 | 32.21976 | 38.91669 | 37985 ft | 475 kts | 321° |
| 2026-05-04 12:51 | 32.27941 | 38.88137 | 37974 ft | 474 kts | 321° |
| 2026-05-04 12:51 | 32.33844 | 38.84639 | 37971 ft | 475 kts | 321° |
| 2026-05-04 12:52 | 32.39759 | 38.81138 | 37971 ft | 475 kts | 321° |
| 2026-05-04 12:52 | 32.45666 | 38.77633 | 37970 ft | 475 kts | 321° |
| 2026-05-04 12:53 | 32.51578 | 38.74118 | 37960 ft | 476 kts | 321° |
| 2026-05-04 12:53 | 32.57468 | 38.70610 | 37956 ft | 476 kts | 321° |
| 2026-05-04 12:54 | 32.63402 | 38.67071 | 37947 ft | 477 kts | 321° |
| 2026-05-04 12:54 | 32.69334 | 38.63528 | 37941 ft | 478 kts | 321° |
| 2026-05-04 12:55 | 32.75285 | 38.59969 | 37940 ft | 478 kts | 321° |
| 2026-05-04 12:55 | 32.81226 | 38.56411 | 37936 ft | 478 kts | 322° |
| 2026-05-04 12:56 | 32.87140 | 38.52864 | 37927 ft | 478 kts | 322° |
| 2026-05-04 12:56 | 32.93078 | 38.49296 | 37919 ft | 478 kts | 322° |
| 2026-05-04 12:57 | 32.99004 | 38.45730 | 37923 ft | 478 kts | 322° |
| 2026-05-04 12:57 | 33.04951 | 38.42146 | 37916 ft | 478 kts | 322° |
| 2026-05-04 12:58 | 33.10880 | 38.38568 | 37916 ft | 478 kts | 322° |
| 2026-05-04 12:58 | 33.16808 | 38.34985 | 37907 ft | 477 kts | 322° |
| 2026-05-04 12:59 | 33.22706 | 38.31415 | 37910 ft | 477 kts | 322° |
| 2026-05-04 12:59 | 33.28649 | 38.27811 | 37910 ft | 477 kts | 322° |
| 2026-05-04 13:00 | 33.34579 | 38.24210 | 37908 ft | 477 kts | 322° |
| 2026-05-04 13:00 | 33.40451 | 38.20638 | 37906 ft | 477 kts | 322° |
| 2026-05-04 13:01 | 33.46376 | 38.17028 | 37905 ft | 478 kts | 322° |
| 2026-05-04 13:01 | 33.52294 | 38.13418 | 37913 ft | 478 kts | 322° |
| 2026-05-04 13:02 | 33.58226 | 38.09793 | 37901 ft | 478 kts | 322° |
| 2026-05-04 13:02 | 33.64042 | 38.06235 | 37893 ft | 478 kts | 322° |
| 2026-05-04 13:03 | 33.69952 | 38.02613 | 37892 ft | 478 kts | 322° |
| 2026-05-04 13:03 | 33.75879 | 37.98974 | 37887 ft | 478 kts | 322° |
| 2026-05-04 13:04 | 33.81780 | 37.95337 | 37878 ft | 476 kts | 321° |
| 2026-05-04 13:04 | 33.84590 | 37.93257 | 37879 ft | 465 kts | 313° |
| 2026-05-04 13:04 | 33.87038 | 37.90836 | 37877 ft | 453 kts | 306° |
| 2026-05-04 13:05 | 33.90985 | 37.85119 | 37874 ft | 437 kts | 295° |
| 2026-05-04 13:05 | 33.94225 | 37.78981 | 37868 ft | 434 kts | 292° |
| 2026-05-04 13:06 | 33.97348 | 37.72761 | 37869 ft | 436 kts | 292° |
| 2026-05-04 13:06 | 34.00536 | 37.66528 | 37868 ft | 437 kts | 293° |
| 2026-05-04 13:07 | 34.03752 | 37.60337 | 37880 ft | 438 kts | 293° |
| 2026-05-04 13:07 | 34.06998 | 37.54106 | 37863 ft | 439 kts | 293° |
| 2026-05-04 13:08 | 34.10249 | 37.47855 | 37864 ft | 440 kts | 293° |
| 2026-05-04 13:08 | 34.13494 | 37.41599 | 37856 ft | 440 kts | 293° |
| 2026-05-04 13:09 | 34.16713 | 37.35380 | 37852 ft | 440 kts | 294° |
| 2026-05-04 13:09 | 34.19798 | 37.29063 | 37860 ft | 434 kts | 288° |
| 2026-05-04 13:10 | 34.21613 | 37.22162 | 37855 ft | 420 kts | 273° |
| 2026-05-04 13:10 | 34.22280 | 37.15232 | 37858 ft | 418 kts | 270° |
| 2026-05-04 13:11 | 34.22803 | 37.08208 | 37854 ft | 419 kts | 270° |
| 2026-05-04 13:11 | 34.23322 | 37.01196 | 37857 ft | 419 kts | 270° |
| 2026-05-04 13:12 | 34.23859 | 36.94175 | 37847 ft | 418 kts | 270° |
| 2026-05-04 13:12 | 34.24392 | 36.87236 | 37851 ft | 416 kts | 270° |
| 2026-05-04 13:13 | 34.24924 | 36.80273 | 37847 ft | 415 kts | 270° |
| 2026-05-04 13:13 | 34.25436 | 36.73501 | 37848 ft | 414 kts | 270° |
| 2026-05-04 13:14 | 34.25956 | 36.66549 | 37853 ft | 415 kts | 271° |
| 2026-05-04 13:14 | 34.26474 | 36.59569 | 37853 ft | 416 kts | 271° |
| 2026-05-04 13:15 | 34.26896 | 36.52618 | 37858 ft | 416 kts | 269° |
| 2026-05-04 13:15 | 34.27120 | 36.45588 | 37858 ft | 417 kts | 268° |
| 2026-05-04 13:16 | 34.27335 | 36.38594 | 37867 ft | 418 kts | 269° |
| 2026-05-04 13:16 | 34.27580 | 36.31568 | 37876 ft | 420 kts | 269° |
| 2026-05-04 13:17 | 34.27839 | 36.24493 | 37878 ft | 421 kts | 269° |
| 2026-05-04 13:17 | 34.28096 | 36.17429 | 37891 ft | 422 kts | 269° |
| 2026-05-04 13:18 | 34.28348 | 36.10356 | 37902 ft | 423 kts | 269° |
| 2026-05-04 13:18 | 34.28597 | 36.03269 | 37908 ft | 422 kts | 269° |
| 2026-05-04 13:19 | 34.28858 | 35.96164 | 37905 ft | 422 kts | 270° |
| 2026-05-04 13:19 | 34.29186 | 35.89081 | 37918 ft | 422 kts | 270° |
| 2026-05-04 13:20 | 34.29464 | 35.83202 | 37926 ft | 421 kts | 270° |
| 2026-05-04 13:20 | 34.29785 | 35.76139 | 37919 ft | 420 kts | 270° |
| 2026-05-04 13:21 | 34.30482 | 35.69099 | 37919 ft | 424 kts | 279° |
| 2026-05-04 13:21 | 34.32199 | 35.62264 | 37922 ft | 427 kts | 283° |
| 2026-05-04 13:22 | 34.34129 | 35.55428 | 37911 ft | 428 kts | 284° |
| 2026-05-04 13:22 | 34.36076 | 35.48619 | 37905 ft | 427 kts | 284° |
| 2026-05-04 13:23 | 34.38002 | 35.41809 | 37900 ft | 427 kts | 283° |
| 2026-05-04 13:23 | 34.39897 | 35.35048 | 37898 ft | 427 kts | 283° |
| 2026-05-04 13:24 | 34.41803 | 35.28224 | 37889 ft | 427 kts | 283° |
| 2026-05-04 13:24 | 34.43703 | 35.21404 | 37883 ft | 427 kts | 283° |
| 2026-05-04 13:25 | 34.46733 | 35.11234 | 37881 ft | 432 kts | 290° |
| 2026-05-04 13:25 | 34.50027 | 35.05184 | 37873 ft | 447 kts | 304° |
| 2026-05-04 13:26 | 34.54975 | 35.00233 | 37875 ft | 466 kts | 319° |
| 2026-05-04 13:26 | 34.60581 | 34.96170 | 37865 ft | 471 kts | 321° |
| 2026-05-04 13:27 | 34.66284 | 34.92211 | 37860 ft | 472 kts | 322° |
| 2026-05-04 13:27 | 34.71973 | 34.88222 | 37854 ft | 472 kts | 321° |
| 2026-05-04 13:28 | 34.77660 | 34.84184 | 37858 ft | 473 kts | 321° |
| 2026-05-04 13:28 | 34.83306 | 34.80151 | 37839 ft | 474 kts | 321° |
| 2026-05-04 13:29 | 34.89005 | 34.76075 | 37826 ft | 475 kts | 322° |
| 2026-05-04 13:29 | 34.94714 | 34.71987 | 37833 ft | 476 kts | 322° |
| 2026-05-04 13:30 | 35.00433 | 34.67886 | 37835 ft | 477 kts | 322° |
| 2026-05-04 13:30 | 35.05937 | 34.63932 | 37834 ft | 478 kts | 322° |
| 2026-05-04 13:31 | 35.11652 | 34.59822 | 37829 ft | 479 kts | 322° |
| 2026-05-04 13:31 | 35.17385 | 34.55692 | 37825 ft | 480 kts | 322° |
| 2026-05-04 13:32 | 35.23142 | 34.51537 | 37823 ft | 480 kts | 323° |
| 2026-05-04 13:32 | 35.28921 | 34.47359 | 37819 ft | 481 kts | 323° |
| 2026-05-04 13:33 | 35.34652 | 34.43209 | 37813 ft | 481 kts | 323° |
| 2026-05-04 13:33 | 35.40425 | 34.39022 | 37819 ft | 481 kts | 323° |
| 2026-05-04 13:34 | 35.46188 | 34.34835 | 37813 ft | 480 kts | 323° |
| 2026-05-04 13:34 | 35.51926 | 34.30659 | 37812 ft | 480 kts | 323° |
| 2026-05-04 13:35 | 35.60530 | 34.24384 | 37814 ft | 480 kts | 323° |
| 2026-05-04 13:36 | 35.66239 | 34.20211 | 37809 ft | 480 kts | 323° |
| 2026-05-04 13:36 | 35.71989 | 34.16001 | 37807 ft | 480 kts | 323° |
| 2026-05-04 13:37 | 35.77726 | 34.11794 | 37806 ft | 480 kts | 324° |
| 2026-05-04 13:37 | 35.83439 | 34.07597 | 37806 ft | 480 kts | 324° |
| 2026-05-04 13:38 | 35.89169 | 34.03381 | 37798 ft | 480 kts | 324° |
| 2026-05-04 13:38 | 35.94915 | 33.99129 | 37802 ft | 479 kts | 323° |
| 2026-05-04 13:39 | 36.00558 | 33.94862 | 37796 ft | 479 kts | 323° |
| 2026-05-04 13:39 | 36.06246 | 33.90540 | 37797 ft | 480 kts | 323° |
| 2026-05-04 13:40 | 36.11947 | 33.86213 | 37795 ft | 480 kts | 323° |
| 2026-05-04 13:40 | 36.17644 | 33.81891 | 37789 ft | 480 kts | 323° |
| 2026-05-04 13:41 | 36.23334 | 33.77569 | 37788 ft | 480 kts | 323° |
| 2026-05-04 13:41 | 36.29022 | 33.73241 | 37783 ft | 481 kts | 324° |
| 2026-05-04 13:42 | 36.37568 | 33.66717 | 37776 ft | 481 kts | 324° |
| 2026-05-04 13:42 | 36.43274 | 33.62348 | 37757 ft | 481 kts | 324° |
| 2026-05-04 13:43 | 36.48935 | 33.58010 | 37780 ft | 481 kts | 324° |
| 2026-05-04 13:43 | 36.54642 | 33.53633 | 37765 ft | 482 kts | 324° |
| 2026-05-04 13:44 | 36.60347 | 33.49248 | 37767 ft | 482 kts | 324° |
| 2026-05-04 13:44 | 36.66061 | 33.44847 | 37769 ft | 482 kts | 324° |
| 2026-05-04 13:45 | 36.71736 | 33.40469 | 37772 ft | 482 kts | 324° |
| 2026-05-04 13:45 | 36.77448 | 33.36054 | 37776 ft | 482 kts | 324° |
| 2026-05-04 13:46 | 36.83150 | 33.31636 | 37784 ft | 482 kts | 325° |
| 2026-05-04 13:46 | 36.88302 | 33.26389 | 37789 ft | 476 kts | 311° |
| 2026-05-04 13:47 | 36.92854 | 33.20404 | 37791 ft | 475 kts | 310° |
| 2026-05-04 13:47 | 36.97110 | 33.14576 | 37789 ft | 475 kts | 310° |
| 2026-05-04 13:48 | 37.01579 | 33.08434 | 37800 ft | 475 kts | 310° |
| 2026-05-04 13:48 | 37.06027 | 33.02341 | 37803 ft | 475 kts | 310° |
| 2026-05-04 13:49 | 37.10489 | 32.96234 | 37807 ft | 475 kts | 310° |
| 2026-05-04 13:49 | 37.14948 | 32.90123 | 37813 ft | 475 kts | 310° |
| 2026-05-04 13:50 | 37.19388 | 32.84024 | 37811 ft | 474 kts | 310° |
| 2026-05-04 13:50 | 37.23822 | 32.77923 | 37810 ft | 474 kts | 310° |
| 2026-05-04 13:51 | 37.28265 | 32.71798 | 37810 ft | 473 kts | 310° |
| 2026-05-04 13:51 | 37.32684 | 32.65694 | 37812 ft | 473 kts | 310° |
| 2026-05-04 13:52 | 37.39297 | 32.56537 | 37810 ft | 472 kts | 310° |
| 2026-05-04 13:53 | 37.43724 | 32.50392 | 37809 ft | 472 kts | 310° |
| 2026-05-04 13:53 | 37.48116 | 32.44286 | 37819 ft | 472 kts | 310° |
| 2026-05-04 13:54 | 37.54716 | 32.35086 | 37824 ft | 472 kts | 310° |
| 2026-05-04 13:55 | 37.61316 | 32.25859 | 37838 ft | 472 kts | 310° |
| 2026-05-04 13:55 | 37.67912 | 32.16612 | 37854 ft | 472 kts | 310° |
| 2026-05-04 13:56 | 37.72279 | 32.10476 | 37861 ft | 472 kts | 311° |
| 2026-05-04 13:57 | 37.78877 | 32.01182 | 37876 ft | 472 kts | 311° |
| 2026-05-04 13:58 | 37.87623 | 31.88821 | 37886 ft | 473 kts | 311° |
| 2026-05-04 13:58 | 37.94201 | 31.79493 | 37893 ft | 474 kts | 311° |
| 2026-05-04 13:59 | 37.98590 | 31.73254 | 37895 ft | 474 kts | 311° |
| 2026-05-04 14:00 | 38.05168 | 31.63880 | 37902 ft | 474 kts | 311° |
| 2026-05-04 14:00 | 38.11739 | 31.54489 | 37903 ft | 474 kts | 311° |
| 2026-05-04 14:01 | 38.16109 | 31.48226 | 37910 ft | 473 kts | 311° |
| 2026-05-04 14:02 | 38.22648 | 31.38836 | 37917 ft | 472 kts | 311° |
| 2026-05-04 14:02 | 38.26996 | 31.32577 | 37920 ft | 472 kts | 311° |
| 2026-05-04 14:03 | 38.31313 | 31.26349 | 37926 ft | 472 kts | 311° |
| 2026-05-04 14:03 | 38.35656 | 31.20071 | 37928 ft | 471 kts | 311° |
| 2026-05-04 14:04 | 38.42146 | 31.10669 | 37938 ft | 471 kts | 311° |
| 2026-05-04 14:04 | 38.46447 | 31.04442 | 37937 ft | 471 kts | 313° |
| 2026-05-04 14:05 | 38.51384 | 30.99061 | 37944 ft | 470 kts | 324° |
| 2026-05-04 14:05 | 38.54085 | 30.96616 | 37947 ft | 470 kts | 324° |
| 2026-05-04 14:06 | 38.59501 | 30.91838 | 37956 ft | 470 kts | 325° |
| 2026-05-04 14:06 | 38.64900 | 30.87090 | 37951 ft | 471 kts | 325° |
| 2026-05-04 14:07 | 38.70303 | 30.82307 | 37954 ft | 472 kts | 325° |
| 2026-05-04 14:07 | 38.75699 | 30.77509 | 37961 ft | 472 kts | 325° |
| 2026-05-04 14:08 | 38.80185 | 30.73511 | 37964 ft | 472 kts | 325° |
| 2026-05-04 14:08 | 38.86670 | 30.68307 | 37971 ft | 473 kts | 334° |
| 2026-05-04 14:09 | 38.94678 | 30.63605 | 37973 ft | 473 kts | 335° |
| 2026-05-04 14:10 | 39.03684 | 30.58526 | 37968 ft | 473 kts | 336° |
| 2026-05-04 14:10 | 39.09720 | 30.55102 | 37979 ft | 474 kts | 335° |
| 2026-05-04 14:11 | 39.15762 | 30.51656 | 37981 ft | 474 kts | 335° |
| 2026-05-04 14:11 | 39.24807 | 30.46479 | 37979 ft | 474 kts | 335° |
| 2026-05-04 14:12 | 39.30802 | 30.43040 | 37980 ft | 473 kts | 336° |
| 2026-05-04 14:13 | 39.39596 | 30.37986 | 37977 ft | 473 kts | 336° |
| 2026-05-04 14:13 | 39.45579 | 30.34538 | 37984 ft | 473 kts | 336° |
| 2026-05-04 14:14 | 39.51607 | 30.31058 | 37981 ft | 473 kts | 336° |
| 2026-05-04 14:14 | 39.60639 | 30.25832 | 37981 ft | 473 kts | 336° |
| 2026-05-04 14:15 | 39.72640 | 30.18864 | 37977 ft | 473 kts | 336° |
| 2026-05-04 14:16 | 39.81652 | 30.13614 | 37988 ft | 473 kts | 336° |
| 2026-05-04 14:17 | 39.90612 | 30.08379 | 37988 ft | 472 kts | 336° |
| 2026-05-04 14:18 | 39.99606 | 30.03110 | 37994 ft | 472 kts | 336° |
| 2026-05-04 14:19 | 40.11592 | 29.96064 | 38002 ft | 473 kts | 336° |
| 2026-05-04 14:19 | 40.17596 | 29.92524 | 38001 ft | 474 kts | 336° |
| 2026-05-04 14:20 | 40.23603 | 29.88975 | 38008 ft | 476 kts | 336° |
| 2026-05-04 14:20 | 40.29407 | 29.85541 | 38018 ft | 477 kts | 336° |
| 2026-05-04 14:21 | 40.38477 | 29.80159 | 38015 ft | 478 kts | 336° |
| 2026-05-04 14:21 | 40.44547 | 29.76548 | 38012 ft | 477 kts | 336° |
| 2026-05-04 14:22 | 40.50555 | 29.72968 | 38013 ft | 477 kts | 336° |
| 2026-05-04 14:22 | 40.56587 | 29.69366 | 38018 ft | 476 kts | 336° |
| 2026-05-04 14:23 | 40.65566 | 29.63760 | 38028 ft | 477 kts | 330° |
| 2026-05-04 14:24 | 40.70947 | 29.58633 | 38024 ft | 478 kts | 323° |
| 2026-05-04 14:24 | 40.76156 | 29.53180 | 38024 ft | 479 kts | 323° |
| 2026-05-04 14:25 | 40.81350 | 29.47649 | 38021 ft | 479 kts | 322° |
| 2026-05-04 14:25 | 40.88387 | 29.38304 | 38032 ft | 481 kts | 314° |
| 2026-05-04 14:26 | 40.92902 | 29.31760 | 38027 ft | 481 kts | 314° |
| 2026-05-04 14:26 | 40.97400 | 29.25201 | 38003 ft | 481 kts | 314° |
| 2026-05-04 14:27 | 41.01894 | 29.18660 | 38018 ft | 480 kts | 314° |
| 2026-05-04 14:27 | 41.06390 | 29.12122 | 38019 ft | 480 kts | 314° |
| 2026-05-04 14:28 | 41.10880 | 29.05580 | 38017 ft | 479 kts | 314° |
| 2026-05-04 14:28 | 41.15368 | 28.99025 | 38018 ft | 479 kts | 314° |
| 2026-05-04 14:29 | 41.24334 | 28.85889 | 38021 ft | 480 kts | 314° |
| 2026-05-04 14:30 | 41.28797 | 28.79327 | 38021 ft | 480 kts | 314° |
| 2026-05-04 14:31 | 41.35326 | 28.69702 | 38019 ft | 481 kts | 314° |
| 2026-05-04 14:32 | 41.44282 | 28.56448 | 38020 ft | 481 kts | 314° |
| 2026-05-04 14:32 | 41.48772 | 28.49781 | 38024 ft | 482 kts | 314° |
| 2026-05-04 14:33 | 41.53247 | 28.43121 | 38022 ft | 482 kts | 314° |
| 2026-05-04 14:33 | 41.57696 | 28.36485 | 38020 ft | 483 kts | 314° |
| 2026-05-04 14:34 | 41.62182 | 28.29778 | 38022 ft | 483 kts | 314° |
| 2026-05-04 14:34 | 41.66656 | 28.23075 | 38021 ft | 483 kts | 313° |
| 2026-05-04 14:35 | 41.71106 | 28.16393 | 38024 ft | 482 kts | 313° |
| 2026-05-04 14:35 | 41.75588 | 28.09647 | 38028 ft | 482 kts | 313° |
| 2026-05-04 14:36 | 41.80020 | 28.02961 | 38027 ft | 482 kts | 313° |
| 2026-05-04 14:36 | 41.84468 | 27.96236 | 38029 ft | 482 kts | 313° |
| 2026-05-04 14:37 | 41.88940 | 27.89460 | 38030 ft | 482 kts | 313° |
| 2026-05-04 14:37 | 41.93363 | 27.82741 | 38032 ft | 483 kts | 313° |
| 2026-05-04 14:38 | 41.97805 | 27.75971 | 38026 ft | 483 kts | 313° |
| 2026-05-04 14:38 | 42.02041 | 27.68948 | 38029 ft | 483 kts | 310° |
| 2026-05-04 14:39 | 42.06150 | 27.61835 | 38027 ft | 483 kts | 310° |
| 2026-05-04 14:39 | 42.10311 | 27.54690 | 38030 ft | 483 kts | 310° |
| 2026-05-04 14:40 | 42.16545 | 27.44020 | 38023 ft | 483 kts | 310° |
| 2026-05-04 14:40 | 42.20682 | 27.36855 | 38022 ft | 483 kts | 309° |
| 2026-05-04 14:41 | 42.24782 | 27.29740 | 38026 ft | 484 kts | 309° |
| 2026-05-04 14:42 | 42.33038 | 27.15386 | 38021 ft | 484 kts | 309° |
| 2026-05-04 14:42 | 42.37167 | 27.08183 | 38018 ft | 484 kts | 309° |
| 2026-05-04 14:43 | 42.41297 | 27.00963 | 38014 ft | 485 kts | 309° |
| 2026-05-04 14:43 | 42.45394 | 26.93779 | 38015 ft | 485 kts | 309° |
| 2026-05-04 14:44 | 42.49515 | 26.86538 | 38016 ft | 485 kts | 309° |
| 2026-05-04 14:44 | 42.53631 | 26.79286 | 38018 ft | 485 kts | 309° |
| 2026-05-04 14:45 | 42.57744 | 26.72024 | 38016 ft | 485 kts | 309° |
| 2026-05-04 14:45 | 42.61855 | 26.64748 | 38020 ft | 486 kts | 309° |
| 2026-05-04 14:46 | 42.65960 | 26.57460 | 38018 ft | 485 kts | 309° |
| 2026-05-04 14:46 | 42.70062 | 26.50161 | 38023 ft | 485 kts | 309° |
| 2026-05-04 14:47 | 42.74155 | 26.42859 | 38025 ft | 484 kts | 309° |
| 2026-05-04 14:47 | 42.78232 | 26.35570 | 38026 ft | 484 kts | 309° |
| 2026-05-04 14:48 | 42.82303 | 26.28277 | 38025 ft | 483 kts | 309° |
| 2026-05-04 14:48 | 42.86370 | 26.20974 | 38028 ft | 483 kts | 309° |
| 2026-05-04 14:49 | 42.90424 | 26.13674 | 38030 ft | 483 kts | 309° |
| 2026-05-04 14:49 | 42.94450 | 26.06404 | 38038 ft | 482 kts | 309° |
| 2026-05-04 14:50 | 42.98495 | 25.99086 | 38031 ft | 482 kts | 309° |
| 2026-05-04 14:50 | 43.02441 | 25.91929 | 38052 ft | 482 kts | 309° |
| 2026-05-04 14:51 | 43.06479 | 25.84587 | 38048 ft | 482 kts | 308° |
| 2026-05-04 14:51 | 43.10494 | 25.77267 | 38045 ft | 482 kts | 308° |
| 2026-05-04 14:52 | 43.14500 | 25.69948 | 38049 ft | 482 kts | 308° |
| 2026-05-04 14:52 | 43.18518 | 25.62586 | 38044 ft | 482 kts | 308° |
| 2026-05-04 14:53 | 43.22537 | 25.55203 | 38047 ft | 482 kts | 308° |
| 2026-05-04 14:53 | 43.26532 | 25.47848 | 38048 ft | 482 kts | 308° |
| 2026-05-04 14:54 | 43.30519 | 25.40489 | 38046 ft | 482 kts | 308° |
| 2026-05-04 14:54 | 43.34515 | 25.33094 | 38057 ft | 482 kts | 308° |
| 2026-05-04 14:55 | 43.37862 | 25.26887 | 38058 ft | 483 kts | 308° |
| 2026-05-04 14:55 | 43.41847 | 25.19477 | 38050 ft | 483 kts | 308° |
| 2026-05-04 14:56 | 43.45819 | 25.12075 | 38062 ft | 483 kts | 308° |
| 2026-05-04 14:56 | 43.49821 | 25.04598 | 38065 ft | 483 kts | 308° |
| 2026-05-04 14:57 | 43.53819 | 24.97108 | 38072 ft | 484 kts | 308° |
| 2026-05-04 14:57 | 43.57799 | 24.89633 | 38068 ft | 484 kts | 308° |
| 2026-05-04 14:58 | 43.61763 | 24.82167 | 38074 ft | 483 kts | 307° |
| 2026-05-04 14:58 | 43.65711 | 24.74717 | 38076 ft | 483 kts | 307° |
| 2026-05-04 14:59 | 43.69673 | 24.67218 | 38076 ft | 483 kts | 307° |
| 2026-05-04 15:00 | 43.75684 | 24.56032 | 38070 ft | 481 kts | 313° |
| 2026-05-04 15:00 | 43.80125 | 24.49163 | 38061 ft | 480 kts | 314° |
| 2026-05-04 15:01 | 43.86911 | 24.38984 | 38067 ft | 478 kts | 314° |
| 2026-05-04 15:01 | 43.91397 | 24.32256 | 38063 ft | 478 kts | 314° |
| 2026-05-04 15:02 | 43.95912 | 24.25449 | 38062 ft | 477 kts | 314° |
| 2026-05-04 15:02 | 44.00383 | 24.18686 | 38058 ft | 477 kts | 314° |
| 2026-05-04 15:03 | 44.04864 | 24.11888 | 38047 ft | 476 kts | 314° |
| 2026-05-04 15:03 | 44.09334 | 24.05093 | 38036 ft | 476 kts | 313° |
| 2026-05-04 15:04 | 44.13795 | 23.98295 | 38031 ft | 477 kts | 313° |
| 2026-05-04 15:04 | 44.18257 | 23.91481 | 38025 ft | 477 kts | 314° |
| 2026-05-04 15:05 | 44.22745 | 23.84610 | 38023 ft | 477 kts | 313° |
| 2026-05-04 15:05 | 44.27193 | 23.77783 | 38020 ft | 477 kts | 313° |
| 2026-05-04 15:06 | 44.31652 | 23.70922 | 38023 ft | 478 kts | 313° |
| 2026-05-04 15:07 | 44.38346 | 23.60590 | 38023 ft | 478 kts | 313° |
| 2026-05-04 15:07 | 44.42826 | 23.53656 | 38043 ft | 479 kts | 313° |
| 2026-05-04 15:08 | 44.47260 | 23.46774 | 38037 ft | 479 kts | 313° |
| 2026-05-04 15:08 | 44.51700 | 23.39864 | 38024 ft | 478 kts | 313° |
| 2026-05-04 15:09 | 44.56155 | 23.32917 | 38038 ft | 478 kts | 313° |
| 2026-05-04 15:09 | 44.60610 | 23.25952 | 38014 ft | 478 kts | 313° |
| 2026-05-04 15:10 | 44.67260 | 23.15524 | 38019 ft | 477 kts | 313° |
| 2026-05-04 15:11 | 44.73863 | 23.05128 | 38022 ft | 477 kts | 313° |
| 2026-05-04 15:11 | 44.78272 | 22.98164 | 38018 ft | 477 kts | 313° |
| 2026-05-04 15:12 | 44.82706 | 22.91146 | 38021 ft | 476 kts | 313° |
| 2026-05-04 15:12 | 44.87077 | 22.84209 | 38031 ft | 476 kts | 313° |
| 2026-05-04 15:13 | 44.91471 | 22.77217 | 38035 ft | 476 kts | 313° |
| 2026-05-04 15:13 | 44.95858 | 22.70222 | 38039 ft | 476 kts | 313° |
| 2026-05-04 15:14 | 45.00248 | 22.63203 | 38049 ft | 476 kts | 313° |
| 2026-05-04 15:14 | 45.04624 | 22.56191 | 38053 ft | 476 kts | 313° |
| 2026-05-04 15:15 | 45.08999 | 22.49162 | 38063 ft | 475 kts | 313° |
| 2026-05-04 15:15 | 45.13361 | 22.42133 | 38064 ft | 475 kts | 313° |
| 2026-05-04 15:16 | 45.19873 | 22.31607 | 38071 ft | 475 kts | 313° |
| 2026-05-04 15:17 | 45.26397 | 22.21025 | 38077 ft | 475 kts | 313° |
| 2026-05-04 15:17 | 45.32912 | 22.10416 | 38077 ft | 474 kts | 313° |
| 2026-05-04 15:18 | 45.37239 | 22.03348 | 38078 ft | 474 kts | 313° |
| 2026-05-04 15:19 | 45.43720 | 21.92728 | 38079 ft | 473 kts | 313° |
| 2026-05-04 15:19 | 45.50177 | 21.82107 | 38079 ft | 472 kts | 312° |
| 2026-05-04 15:20 | 45.54440 | 21.75073 | 38077 ft | 472 kts | 312° |
| 2026-05-04 15:20 | 45.58728 | 21.67978 | 38078 ft | 472 kts | 312° |
| 2026-05-04 15:21 | 45.63009 | 21.60878 | 38077 ft | 472 kts | 312° |
| 2026-05-04 15:22 | 45.69422 | 21.50207 | 38077 ft | 471 kts | 312° |
| 2026-05-04 15:22 | 45.75811 | 21.39535 | 38074 ft | 470 kts | 312° |
| 2026-05-04 15:23 | 45.80049 | 21.32433 | 38076 ft | 470 kts | 312° |
| 2026-05-04 15:23 | 45.84316 | 21.25267 | 38074 ft | 471 kts | 312° |
| 2026-05-04 15:24 | 45.92766 | 21.11014 | 38078 ft | 470 kts | 311° |
| 2026-05-04 15:25 | 45.97012 | 21.03827 | 38086 ft | 470 kts | 311° |
| 2026-05-04 15:26 | 46.03356 | 20.93050 | 38086 ft | 471 kts | 311° |
| 2026-05-04 15:26 | 46.09698 | 20.82238 | 38086 ft | 471 kts | 311° |
| 2026-05-04 15:27 | 46.16034 | 20.71392 | 38086 ft | 471 kts | 311° |
| 2026-05-04 15:28 | 46.21902 | 20.60070 | 38086 ft | 472 kts | 306° |
| 2026-05-04 15:29 | 46.27473 | 20.48326 | 38082 ft | 471 kts | 306° |
| 2026-05-04 15:30 | 46.40667 | 20.21249 | 38074 ft | 470 kts | 307° |
| 2026-05-04 15:31 | 46.46309 | 20.09617 | 38076 ft | 469 kts | 306° |
| 2026-05-04 15:32 | 46.55651 | 19.90242 | 38063 ft | 468 kts | 306° |
| 2026-05-04 15:34 | 46.64917 | 19.70891 | 38060 ft | 467 kts | 306° |
| 2026-05-04 15:34 | 46.70476 | 19.59218 | 38055 ft | 467 kts | 306° |
| 2026-05-04 15:35 | 46.76022 | 19.47525 | 38054 ft | 467 kts | 305° |
| 2026-05-04 15:36 | 46.81530 | 19.35861 | 38052 ft | 467 kts | 305° |
| 2026-05-04 15:36 | 46.85210 | 19.28040 | 38053 ft | 467 kts | 305° |
| 2026-05-04 15:37 | 46.88881 | 19.20217 | 38053 ft | 467 kts | 305° |
| 2026-05-04 15:37 | 46.92529 | 19.12419 | 38052 ft | 466 kts | 305° |
| 2026-05-04 15:38 | 46.96189 | 19.04575 | 38049 ft | 466 kts | 305° |
| 2026-05-04 15:38 | 46.99843 | 18.96722 | 38051 ft | 466 kts | 305° |
| 2026-05-04 15:39 | 47.03487 | 18.88869 | 38045 ft | 466 kts | 304° |
| 2026-05-04 15:40 | 47.08957 | 18.77040 | 38048 ft | 466 kts | 304° |
| 2026-05-04 15:40 | 47.12587 | 18.69160 | 38049 ft | 466 kts | 304° |
| 2026-05-04 15:41 | 47.16203 | 18.61286 | 38046 ft | 467 kts | 304° |
| 2026-05-04 15:41 | 47.19834 | 18.53359 | 38037 ft | 466 kts | 304° |
| 2026-05-04 15:42 | 47.23438 | 18.45469 | 38046 ft | 466 kts | 304° |
| 2026-05-04 15:42 | 47.27050 | 18.37538 | 38040 ft | 466 kts | 304° |
| 2026-05-04 15:43 | 47.30051 | 18.30930 | 38038 ft | 466 kts | 304° |
| 2026-05-04 15:43 | 47.33649 | 18.22990 | 38039 ft | 465 kts | 304° |
| 2026-05-04 15:44 | 47.37241 | 18.15038 | 38030 ft | 465 kts | 304° |
| 2026-05-04 15:44 | 47.40830 | 18.07071 | 38029 ft | 465 kts | 304° |
| 2026-05-04 15:45 | 47.44405 | 17.99110 | 38027 ft | 465 kts | 304° |
| 2026-05-04 15:45 | 47.47977 | 17.91136 | 38021 ft | 465 kts | 303° |
| 2026-05-04 15:46 | 47.51522 | 17.83194 | 38026 ft | 465 kts | 303° |
| 2026-05-04 15:46 | 47.55083 | 17.75196 | 38019 ft | 465 kts | 303° |
| 2026-05-04 15:47 | 47.58641 | 17.67182 | 38021 ft | 465 kts | 303° |
| 2026-05-04 15:47 | 47.62190 | 17.59165 | 38016 ft | 465 kts | 303° |
| 2026-05-04 15:48 | 47.65732 | 17.51139 | 38014 ft | 465 kts | 303° |
| 2026-05-04 15:48 | 47.71037 | 17.39072 | 38004 ft | 465 kts | 303° |
| 2026-05-04 15:49 | 47.74565 | 17.31017 | 37993 ft | 464 kts | 303° |
| 2026-05-04 15:49 | 47.78083 | 17.22965 | 37993 ft | 464 kts | 302° |
| 2026-05-04 15:50 | 47.81589 | 17.14914 | 37986 ft | 464 kts | 302° |
| 2026-05-04 15:50 | 47.85418 | 17.07268 | 37979 ft | 464 kts | 308° |
| 2026-05-04 15:51 | 47.87458 | 17.03522 | 38133 ft | 464 kts | 308° |
| 2026-05-04 15:51 | 47.89500 | 16.99814 | 38480 ft | 463 kts | 309° |
| 2026-05-04 15:51 | 47.91552 | 16.96105 | 38783 ft | 462 kts | 309° |
| 2026-05-04 15:51 | 47.93594 | 16.92412 | 39009 ft | 462 kts | 308° |
| 2026-05-04 15:52 | 47.95634 | 16.88716 | 39232 ft | 462 kts | 308° |
| 2026-05-04 15:52 | 47.97678 | 16.85003 | 39410 ft | 462 kts | 308° |
| 2026-05-04 15:52 | 47.99716 | 16.81291 | 39622 ft | 462 kts | 308° |
| 2026-05-04 15:52 | 48.01749 | 16.77579 | 39811 ft | 462 kts | 308° |
| 2026-05-04 15:53 | 48.03789 | 16.73849 | 39951 ft | 464 kts | 308° |
| 2026-05-04 15:53 | 48.05834 | 16.70105 | 39964 ft | 465 kts | 308° |
| 2026-05-04 15:53 | 48.09918 | 16.62611 | 39965 ft | 464 kts | 308° |
| 2026-05-04 15:54 | 48.13997 | 16.55104 | 39968 ft | 464 kts | 308° |
| 2026-05-04 15:54 | 48.18045 | 16.47636 | 39965 ft | 464 kts | 308° |
| 2026-05-04 15:55 | 48.22117 | 16.40101 | 39962 ft | 464 kts | 308° |
| 2026-05-04 15:55 | 48.26179 | 16.32564 | 39954 ft | 464 kts | 308° |
| 2026-05-04 15:56 | 48.30240 | 16.25009 | 39946 ft | 464 kts | 307° |
| 2026-05-04 15:56 | 48.34266 | 16.17496 | 39943 ft | 464 kts | 307° |
| 2026-05-04 15:57 | 48.38313 | 16.09923 | 39941 ft | 464 kts | 307° |
| 2026-05-04 15:57 | 48.42357 | 16.02335 | 39935 ft | 464 kts | 307° |
| 2026-05-04 15:58 | 48.46391 | 15.94744 | 39939 ft | 463 kts | 307° |
| 2026-05-04 15:58 | 48.50417 | 15.87147 | 39936 ft | 464 kts | 307° |
| 2026-05-04 15:59 | 48.54415 | 15.79581 | 39939 ft | 464 kts | 307° |
| 2026-05-04 15:59 | 48.58430 | 15.71962 | 39943 ft | 464 kts | 307° |
| 2026-05-04 16:00 | 48.62442 | 15.64327 | 39940 ft | 464 kts | 307° |
| 2026-05-04 16:00 | 48.66459 | 15.56660 | 39946 ft | 464 kts | 307° |
| 2026-05-04 16:01 | 48.70468 | 15.48985 | 39950 ft | 464 kts | 307° |
| 2026-05-04 16:01 | 48.74356 | 15.41523 | 39951 ft | 464 kts | 306° |
| 2026-05-04 16:02 | 48.78285 | 15.33960 | 39939 ft | 464 kts | 306° |
| 2026-05-04 16:03 | 48.84246 | 15.22444 | 39938 ft | 464 kts | 306° |
| 2026-05-04 16:03 | 48.88243 | 15.14696 | 39956 ft | 464 kts | 306° |
| 2026-05-04 16:04 | 48.92243 | 15.06986 | 39942 ft | 464 kts | 307° |
| 2026-05-04 16:04 | 48.98370 | 14.95578 | 39944 ft | 465 kts | 307° |
| 2026-05-04 16:05 | 49.02440 | 14.87978 | 39944 ft | 464 kts | 307° |
| 2026-05-04 16:06 | 49.08529 | 14.76504 | 39943 ft | 464 kts | 307° |
| 2026-05-04 16:07 | 49.16629 | 14.61143 | 39947 ft | 464 kts | 307° |
| 2026-05-04 16:08 | 49.24712 | 14.45729 | 39949 ft | 464 kts | 306° |
| 2026-05-04 16:09 | 49.34746 | 14.26471 | 39948 ft | 464 kts | 306° |
| 2026-05-04 16:10 | 49.42768 | 14.10973 | 39954 ft | 463 kts | 306° |
| 2026-05-04 16:11 | 49.50771 | 13.95423 | 39953 ft | 463 kts | 306° |
| 2026-05-04 16:12 | 49.62743 | 13.71983 | 39947 ft | 465 kts | 306° |
| 2026-05-04 16:13 | 49.70717 | 13.56259 | 39941 ft | 465 kts | 306° |
| 2026-05-04 16:14 | 49.78673 | 13.40474 | 39938 ft | 466 kts | 306° |
| 2026-05-04 16:16 | 49.88602 | 13.20640 | 39948 ft | 466 kts | 306° |
| 2026-05-04 16:17 | 49.98493 | 13.00735 | 39961 ft | 466 kts | 305° |
| 2026-05-04 16:18 | 50.06388 | 12.84740 | 39967 ft | 466 kts | 305° |
| 2026-05-04 16:19 | 50.16177 | 12.64766 | 39964 ft | 466 kts | 304° |
| 2026-05-04 16:20 | 50.25998 | 12.44576 | 39962 ft | 466 kts | 304° |
| 2026-05-04 16:22 | 50.35751 | 12.24559 | 39967 ft | 467 kts | 304° |
| 2026-05-04 16:23 | 50.47575 | 12.00298 | 39965 ft | 468 kts | 304° |
| 2026-05-04 16:25 | 50.59363 | 11.75844 | 39961 ft | 468 kts | 304° |
| 2026-05-04 16:26 | 50.73087 | 11.47087 | 39967 ft | 469 kts | 304° |
| 2026-05-04 16:28 | 50.82833 | 11.26470 | 39976 ft | 469 kts | 303° |
| 2026-05-04 16:29 | 50.96458 | 10.97372 | 39969 ft | 470 kts | 303° |
| 2026-05-04 16:31 | 51.05510 | 10.77859 | 39968 ft | 470 kts | 303° |
| 2026-05-04 16:32 | 51.16915 | 10.53063 | 39968 ft | 470 kts | 303° |
| 2026-05-04 16:33 | 51.24571 | 10.36125 | 39960 ft | 469 kts | 298° |
| 2026-05-04 16:34 | 51.29027 | 10.22271 | 39959 ft | 467 kts | 293° |
| 2026-05-04 16:35 | 51.37538 | 9.94237 | 39958 ft | 467 kts | 292° |
| 2026-05-04 16:36 | 51.41753 | 9.80210 | 39957 ft | 468 kts | 292° |
| 2026-05-04 16:37 | 51.45969 | 9.66099 | 39962 ft | 468 kts | 292° |
| 2026-05-04 16:38 | 51.51566 | 9.47238 | 39966 ft | 468 kts | 292° |
| 2026-05-04 16:39 | 51.58521 | 9.23588 | 39954 ft | 469 kts | 292° |
| 2026-05-04 16:40 | 51.64063 | 9.04573 | 39952 ft | 469 kts | 292° |
| 2026-05-04 16:41 | 51.70930 | 8.80801 | 39964 ft | 469 kts | 291° |
| 2026-05-04 16:43 | 51.77763 | 8.56908 | 39964 ft | 469 kts | 291° |
| 2026-05-04 16:43 | 51.81836 | 8.42550 | 39962 ft | 469 kts | 291° |
| 2026-05-04 16:45 | 51.89931 | 8.13749 | 39907 ft | 470 kts | 291° |
| 2026-05-04 16:46 | 51.93952 | 7.99310 | 39164 ft | 467 kts | 290° |
| 2026-05-04 16:46 | 51.96607 | 7.89731 | 38025 ft | 464 kts | 290° |
| 2026-05-04 16:47 | 51.99236 | 7.80202 | 36780 ft | 463 kts | 289° |
| 2026-05-04 16:47 | 52.01090 | 7.73458 | 35897 ft | 463 kts | 289° |
| 2026-05-04 16:48 | 52.05009 | 7.59137 | 33865 ft | 467 kts | 288° |
| 2026-05-04 16:48 | 52.06326 | 7.54301 | 33053 ft | 469 kts | 288° |
| 2026-05-04 16:49 | 52.08962 | 7.44593 | 31535 ft | 471 kts | 288° |
| 2026-05-04 16:49 | 52.11579 | 7.34934 | 30452 ft | 463 kts | 288° |
| 2026-05-04 16:50 | 52.14157 | 7.25369 | 29282 ft | 457 kts | 288° |
| 2026-05-04 16:50 | 52.16681 | 7.15963 | 28182 ft | 450 kts | 288° |
| 2026-05-04 16:51 | 52.19155 | 7.06704 | 27115 ft | 443 kts | 288° |
| 2026-05-04 16:51 | 52.20376 | 7.02120 | 26576 ft | 439 kts | 288° |
| 2026-05-04 16:51 | 52.22158 | 6.92734 | 26423 ft | 436 kts | 274° |
| 2026-05-04 16:52 | 52.22884 | 6.82965 | 26122 ft | 437 kts | 271° |
| 2026-05-04 16:52 | 52.23203 | 6.78044 | 26019 ft | 436 kts | 271° |
| 2026-05-04 16:53 | 52.23823 | 6.68307 | 25413 ft | 424 kts | 271° |
| 2026-05-04 16:53 | 52.24700 | 6.54125 | 24015 ft | 413 kts | 271° |
| 2026-05-04 16:54 | 52.24983 | 6.49487 | 23538 ft | 409 kts | 271° |
| 2026-05-04 16:55 | 52.26068 | 6.31429 | 21644 ft | 390 kts | 271° |
| 2026-05-04 16:55 | 52.26579 | 6.22729 | 20744 ft | 384 kts | 271° |
| 2026-05-04 16:56 | 52.27080 | 6.14099 | 19835 ft | 379 kts | 271° |
| 2026-05-04 16:56 | 52.27805 | 6.01422 | 18474 ft | 369 kts | 271° |
| 2026-05-04 16:57 | 52.28039 | 5.97274 | 17992 ft | 365 kts | 271° |
| 2026-05-04 16:57 | 52.28495 | 5.89111 | 17091 ft | 356 kts | 271° |
| 2026-05-04 16:58 | 52.29149 | 5.77202 | 15782 ft | 349 kts | 272° |
| 2026-05-04 16:58 | 52.29363 | 5.73260 | 15350 ft | 347 kts | 272° |
| 2026-05-04 16:59 | 52.29783 | 5.65463 | 14490 ft | 342 kts | 272° |
| 2026-05-04 17:00 | 52.30593 | 5.50156 | 12741 ft | 334 kts | 273° |
| 2026-05-04 17:00 | 52.31175 | 5.38922 | 11476 ft | 329 kts | 273° |
| 2026-05-04 17:01 | 52.31526 | 5.32085 | 11124 ft | 308 kts | 272° |
| 2026-05-04 17:01 | 52.31865 | 5.25413 | 10864 ft | 283 kts | 272° |
| 2026-05-04 17:02 | 52.32172 | 5.19256 | 10612 ft | 261 kts | 272° |
| 2026-05-04 17:02 | 52.32457 | 5.13448 | 10262 ft | 255 kts | 272° |
| 2026-05-04 17:03 | 52.32596 | 5.10569 | 10026 ft | 254 kts | 272° |
| 2026-05-04 17:03 | 52.32737 | 5.07655 | 9810 ft | 264 kts | 272° |
| 2026-05-04 17:03 | 52.33030 | 5.01545 | 9363 ft | 271 kts | 272° |
| 2026-05-04 17:04 | 52.33325 | 4.95412 | 8711 ft | 270 kts | 272° |
| 2026-05-04 17:04 | 52.33614 | 4.89327 | 8202 ft | 268 kts | 272° |
| 2026-05-04 17:05 | 52.33896 | 4.83309 | 7674 ft | 266 kts | 272° |
| 2026-05-04 17:05 | 52.34174 | 4.77292 | 7173 ft | 264 kts | 272° |
| 2026-05-04 17:06 | 52.34448 | 4.71320 | 6666 ft | 263 kts | 272° |
| 2026-05-04 17:06 | 52.34583 | 4.68340 | 6367 ft | 262 kts | 272° |
| 2026-05-04 17:07 | 52.34271 | 4.62528 | 5806 ft | 257 kts | 245° |
| 2026-05-04 17:07 | 52.33707 | 4.60826 | 5609 ft | 256 kts | 238° |
| 2026-05-04 17:07 | 52.32424 | 4.57550 | 5202 ft | 255 kts | 237° |
| 2026-05-04 17:07 | 52.31461 | 4.55106 | 4909 ft | 254 kts | 237° |
| 2026-05-04 17:08 | 52.30513 | 4.52679 | 4606 ft | 253 kts | 237° |
| 2026-05-04 17:08 | 52.28650 | 4.47891 | 4020 ft | 251 kts | 238° |
| 2026-05-04 17:08 | 52.27625 | 4.45594 | 3707 ft | 250 kts | 226° |
| 2026-05-04 17:09 | 52.26172 | 4.44123 | 3538 ft | 245 kts | 198° |
| 2026-05-04 17:09 | 52.24512 | 4.43992 | 3431 ft | 238 kts | 171° |
| 2026-05-04 17:09 | 52.23019 | 4.45024 | 3326 ft | 231 kts | 152° |
| 2026-05-04 17:10 | 52.21174 | 4.48974 | 3116 ft | 218 kts | 111° |
| 2026-05-04 17:10 | 52.21848 | 4.55477 | 2704 ft | 194 kts | 54° |
| 2026-05-04 17:11 | 52.22608 | 4.57288 | 2473 ft | 192 kts | 57° |
| 2026-05-04 17:11 | 52.23299 | 4.59145 | 2196 ft | 190 kts | 58° |
| 2026-05-04 17:11 | 52.24657 | 4.62666 | 1693 ft | 176 kts | 57° |
| 2026-05-04 17:12 | 52.25295 | 4.64326 | 1454 ft | 169 kts | 58° |
| 2026-05-04 17:12 | 52.26499 | 4.67470 | 955 ft | 157 kts | 57° |
| 2026-05-04 17:13 | 52.28106 | 4.71632 | 333 ft | 134 kts | 53° |
| 2026-05-04 17:14 | 52.29517 | 4.75302 | 4 ft | 85 kts | 58° |
| 2026-05-04 17:14 | 52.29688 | 4.75746 | 4 ft | 25 kts | 58° |
| 2026-05-04 17:14 | 52.29913 | 4.76331 | 2 ft | 36 kts | 58° |
| 2026-05-04 17:15 | 52.30048 | 4.76555 | 4 ft | 20 kts | 29° |
| 2026-05-04 17:15 | 52.30251 | 4.76724 | 5 ft | 8 kts | 19° |
| 2026-05-04 17:16 | 52.30338 | 4.76889 | 5 ft | 12 kts | 58° |
| 2026-05-04 17:16 | 52.30490 | 4.77286 | 5 ft | 18 kts | 58° |
| 2026-05-04 17:17 | 52.30561 | 4.77470 | 5 ft | 17 kts | 58° |
| 2026-05-04 17:17 | 52.30748 | 4.77595 | 5 ft | 13 kts | 3° |
| 2026-05-04 17:18 | 52.30849 | 4.77605 | 5 ft | 16 kts | 3° |
| 2026-05-04 17:18 | 52.31025 | 4.77552 | 5 ft | 11 kts | 304° |
| 2026-05-04 17:19 | 52.31073 | 4.77282 | 5 ft | 15 kts | 273° |
| 2026-05-04 17:19 | 52.31088 | 4.76979 | 5 ft | 9 kts | 289° |
| 2026-05-04 17:20 | 52.31134 | 4.76860 | 5 ft | 2 kts | 303° |
| 2026-05-04 17:20 | 52.31161 | 4.76791 | 5 ft | 0 kts | 303° |